WAT5643 KDTW-EHAM
Flight info
| Callsign | WAT5643 |
|---|---|
| Flight time | N/A |
| Altitude | 37000 |
| Route | HHOWE4 LNCON DCT JHW DCT SYR DCT PBERG DCT ANCER/N0480F390 N749A LOMSI/M084F400 DCT 55N050W 57N040W 58N030W 58N020W DCT SUNOT DCT KESIX/N0478F410 DCT AMLAD DCT ERKIT N110 DOLAS L603 LAMSO |
| Aircraft | A359/H-SDE2E3GHIJ3J4J5LM1ORWXY/LB1D1 |
Departure
| Time | N/A |
|---|---|
| Airport | Detroit Metropolitan Wayne County Airport (KDTW) |
Arrival
| Time | 2026-04-27 21:38 |
|---|---|
| Airport | Amsterdam Airport Schiphol (EHAM) |
| Time | Latitude | Longitude | Altitude | Speed | Heading |
|---|---|---|---|---|---|
| 2026-04-27 17:53 | 54.92366 | -50.31865 | 40019 ft | 536 kts | 65° |
| 2026-04-27 17:54 | 54.95232 | -50.20010 | 40164 ft | 535 kts | 66° |
| 2026-04-27 17:54 | 54.98137 | -50.07911 | 40176 ft | 535 kts | 66° |
| 2026-04-27 17:55 | 55.01046 | -49.95900 | 40176 ft | 535 kts | 65° |
| 2026-04-27 17:55 | 55.04148 | -49.83723 | 40176 ft | 534 kts | 64° |
| 2026-04-27 17:56 | 55.07193 | -49.71699 | 40176 ft | 534 kts | 64° |
| 2026-04-27 17:56 | 55.10220 | -49.59584 | 40175 ft | 534 kts | 65° |
| 2026-04-27 17:57 | 55.13197 | -49.47687 | 40175 ft | 535 kts | 64° |
| 2026-04-27 17:57 | 55.16179 | -49.35675 | 40169 ft | 534 kts | 65° |
| 2026-04-27 17:58 | 55.19132 | -49.23615 | 40164 ft | 534 kts | 65° |
| 2026-04-27 17:58 | 55.22054 | -49.11592 | 40167 ft | 534 kts | 66° |
| 2026-04-27 17:59 | 55.25008 | -48.99380 | 40166 ft | 534 kts | 66° |
| 2026-04-27 17:59 | 55.27954 | -48.87147 | 40165 ft | 535 kts | 66° |
| 2026-04-27 18:00 | 55.30876 | -48.74930 | 40159 ft | 534 kts | 66° |
| 2026-04-27 18:00 | 55.33807 | -48.62623 | 40163 ft | 534 kts | 65° |
| 2026-04-27 18:01 | 55.36715 | -48.50340 | 40164 ft | 534 kts | 65° |
| 2026-04-27 18:01 | 55.39616 | -48.38014 | 40166 ft | 535 kts | 65° |
| 2026-04-27 18:02 | 55.42469 | -48.25803 | 40163 ft | 535 kts | 66° |
| 2026-04-27 18:02 | 55.45314 | -48.13550 | 40160 ft | 534 kts | 66° |
| 2026-04-27 18:03 | 55.48105 | -48.01456 | 40157 ft | 534 kts | 66° |
| 2026-04-27 18:03 | 55.50771 | -47.89875 | 40158 ft | 535 kts | 66° |
| 2026-04-27 18:04 | 55.53589 | -47.77554 | 40155 ft | 534 kts | 66° |
| 2026-04-27 18:04 | 55.56411 | -47.65140 | 40156 ft | 534 kts | 66° |
| 2026-04-27 18:05 | 55.59217 | -47.52739 | 40155 ft | 534 kts | 66° |
| 2026-04-27 18:05 | 55.62002 | -47.40346 | 40153 ft | 534 kts | 66° |
| 2026-04-27 18:06 | 55.64726 | -47.28154 | 40150 ft | 534 kts | 68° |
| 2026-04-27 18:06 | 55.67470 | -47.15767 | 40153 ft | 535 kts | 68° |
| 2026-04-27 18:07 | 55.70157 | -47.03567 | 40150 ft | 534 kts | 68° |
| 2026-04-27 18:07 | 55.72893 | -46.91110 | 40153 ft | 534 kts | 68° |
| 2026-04-27 18:08 | 55.75622 | -46.78598 | 40147 ft | 534 kts | 68° |
| 2026-04-27 18:08 | 55.78302 | -46.66239 | 40148 ft | 534 kts | 68° |
| 2026-04-27 18:09 | 55.80967 | -46.53881 | 40145 ft | 535 kts | 68° |
| 2026-04-27 18:09 | 55.83635 | -46.41433 | 40144 ft | 538 kts | 68° |
| 2026-04-27 18:10 | 55.86312 | -46.28862 | 40142 ft | 539 kts | 69° |
| 2026-04-27 18:10 | 55.88982 | -46.16217 | 40144 ft | 540 kts | 68° |
| 2026-04-27 18:11 | 55.91667 | -46.03435 | 40142 ft | 542 kts | 69° |
| 2026-04-27 18:11 | 55.94315 | -45.90752 | 40140 ft | 543 kts | 69° |
| 2026-04-27 18:12 | 55.96969 | -45.77986 | 40133 ft | 544 kts | 69° |
| 2026-04-27 18:12 | 55.99623 | -45.65129 | 40139 ft | 545 kts | 69° |
| 2026-04-27 18:13 | 56.02190 | -45.52610 | 40133 ft | 546 kts | 69° |
| 2026-04-27 18:13 | 56.04819 | -45.39711 | 40134 ft | 547 kts | 69° |
| 2026-04-27 18:14 | 56.07327 | -45.27315 | 40128 ft | 548 kts | 70° |
| 2026-04-27 18:14 | 56.09859 | -45.14700 | 40127 ft | 548 kts | 70° |
| 2026-04-27 18:15 | 56.12503 | -45.01593 | 40134 ft | 548 kts | 69° |
| 2026-04-27 18:15 | 56.15104 | -44.88626 | 40127 ft | 549 kts | 70° |
| 2026-04-27 18:16 | 56.17690 | -44.75560 | 40131 ft | 549 kts | 70° |
| 2026-04-27 18:16 | 56.20235 | -44.62587 | 40126 ft | 549 kts | 70° |
| 2026-04-27 18:17 | 56.22795 | -44.49426 | 40128 ft | 550 kts | 70° |
| 2026-04-27 18:17 | 56.25282 | -44.36568 | 40125 ft | 551 kts | 70° |
| 2026-04-27 18:18 | 56.27814 | -44.23369 | 40127 ft | 551 kts | 71° |
| 2026-04-27 18:18 | 56.30335 | -44.10100 | 40122 ft | 551 kts | 71° |
| 2026-04-27 18:19 | 56.32847 | -43.96831 | 40126 ft | 551 kts | 71° |
| 2026-04-27 18:19 | 56.35350 | -43.83524 | 40118 ft | 551 kts | 71° |
| 2026-04-27 18:20 | 56.37844 | -43.70169 | 40120 ft | 552 kts | 71° |
| 2026-04-27 18:20 | 56.40313 | -43.56841 | 40121 ft | 552 kts | 71° |
| 2026-04-27 18:21 | 56.42774 | -43.43491 | 40123 ft | 552 kts | 71° |
| 2026-04-27 18:21 | 56.45219 | -43.30110 | 40114 ft | 552 kts | 72° |
| 2026-04-27 18:22 | 56.47655 | -43.16644 | 40112 ft | 552 kts | 72° |
| 2026-04-27 18:22 | 56.50050 | -43.03336 | 40116 ft | 552 kts | 72° |
| 2026-04-27 18:23 | 56.52445 | -42.89946 | 40117 ft | 552 kts | 72° |
| 2026-04-27 18:23 | 56.54837 | -42.76478 | 40116 ft | 552 kts | 72° |
| 2026-04-27 18:24 | 56.57217 | -42.62972 | 40108 ft | 552 kts | 72° |
| 2026-04-27 18:24 | 56.59575 | -42.49492 | 40117 ft | 553 kts | 72° |
| 2026-04-27 18:25 | 56.61914 | -42.36025 | 40116 ft | 553 kts | 72° |
| 2026-04-27 18:25 | 56.64081 | -42.23434 | 40106 ft | 553 kts | 73° |
| 2026-04-27 18:26 | 56.66272 | -42.10605 | 40112 ft | 553 kts | 73° |
| 2026-04-27 18:26 | 56.68523 | -41.97353 | 40112 ft | 553 kts | 73° |
| 2026-04-27 18:27 | 56.70760 | -41.84080 | 40108 ft | 553 kts | 73° |
| 2026-04-27 18:27 | 56.73001 | -41.70684 | 40107 ft | 553 kts | 73° |
| 2026-04-27 18:28 | 56.75229 | -41.57276 | 40109 ft | 553 kts | 73° |
| 2026-04-27 18:28 | 56.77441 | -41.43865 | 40111 ft | 553 kts | 73° |
| 2026-04-27 18:29 | 56.79641 | -41.30400 | 40101 ft | 553 kts | 74° |
| 2026-04-27 18:29 | 56.81826 | -41.16920 | 40103 ft | 553 kts | 74° |
| 2026-04-27 18:30 | 56.83979 | -41.03516 | 40102 ft | 553 kts | 74° |
| 2026-04-27 18:30 | 56.86121 | -40.90099 | 40103 ft | 553 kts | 74° |
| 2026-04-27 18:31 | 56.88261 | -40.76583 | 40097 ft | 554 kts | 74° |
| 2026-04-27 18:31 | 56.90383 | -40.63081 | 40098 ft | 554 kts | 74° |
| 2026-04-27 18:32 | 56.92532 | -40.49275 | 40102 ft | 553 kts | 74° |
| 2026-04-27 18:32 | 56.94629 | -40.35700 | 40097 ft | 553 kts | 74° |
| 2026-04-27 18:33 | 56.96706 | -40.22082 | 40096 ft | 553 kts | 75° |
| 2026-04-27 18:33 | 56.98753 | -40.08505 | 40097 ft | 553 kts | 75° |
| 2026-04-27 18:34 | 57.00803 | -39.94833 | 40093 ft | 553 kts | 76° |
| 2026-04-27 18:34 | 57.02758 | -39.81277 | 40094 ft | 553 kts | 76° |
| 2026-04-27 18:35 | 57.04685 | -39.67630 | 40088 ft | 553 kts | 76° |
| 2026-04-27 18:35 | 57.06607 | -39.53873 | 40084 ft | 553 kts | 76° |
| 2026-04-27 18:36 | 57.08499 | -39.40200 | 40096 ft | 553 kts | 76° |
| 2026-04-27 18:36 | 57.10395 | -39.26385 | 40094 ft | 553 kts | 77° |
| 2026-04-27 18:37 | 57.12289 | -39.12682 | 40086 ft | 553 kts | 77° |
| 2026-04-27 18:37 | 57.14158 | -38.98954 | 40085 ft | 553 kts | 77° |
| 2026-04-27 18:38 | 57.16007 | -38.85160 | 40100 ft | 553 kts | 77° |
| 2026-04-27 18:38 | 57.17833 | -38.71372 | 40097 ft | 553 kts | 77° |
| 2026-04-27 18:39 | 57.19642 | -38.57564 | 40104 ft | 553 kts | 77° |
| 2026-04-27 18:39 | 57.21447 | -38.43656 | 40098 ft | 553 kts | 77° |
| 2026-04-27 18:40 | 57.23231 | -38.29788 | 40093 ft | 553 kts | 78° |
| 2026-04-27 18:40 | 57.24986 | -38.15982 | 40082 ft | 553 kts | 78° |
| 2026-04-27 18:41 | 57.26730 | -38.02137 | 40106 ft | 553 kts | 78° |
| 2026-04-27 18:41 | 57.28461 | -37.88284 | 40089 ft | 553 kts | 78° |
| 2026-04-27 18:42 | 57.29908 | -37.76584 | 40096 ft | 554 kts | 77° |
| 2026-04-27 18:42 | 57.31891 | -37.60435 | 40093 ft | 553 kts | 78° |
| 2026-04-27 18:43 | 57.33588 | -37.46441 | 40093 ft | 553 kts | 78° |
| 2026-04-27 18:43 | 57.35272 | -37.32397 | 40097 ft | 553 kts | 78° |
| 2026-04-27 18:44 | 57.36955 | -37.18215 | 40089 ft | 553 kts | 78° |
| 2026-04-27 18:44 | 57.38612 | -37.04105 | 40088 ft | 553 kts | 78° |
| 2026-04-27 18:45 | 57.40247 | -36.90066 | 40093 ft | 553 kts | 78° |
| 2026-04-27 18:45 | 57.41874 | -36.75912 | 40085 ft | 553 kts | 78° |
| 2026-04-27 18:46 | 57.43471 | -36.61903 | 40104 ft | 553 kts | 79° |
| 2026-04-27 18:46 | 57.45057 | -36.47853 | 40080 ft | 553 kts | 78° |
| 2026-04-27 18:47 | 57.46627 | -36.33775 | 40094 ft | 553 kts | 79° |
| 2026-04-27 18:47 | 57.48172 | -36.19750 | 40091 ft | 553 kts | 80° |
| 2026-04-27 18:48 | 57.49709 | -36.05632 | 40090 ft | 554 kts | 79° |
| 2026-04-27 18:48 | 57.51228 | -35.91547 | 40085 ft | 553 kts | 79° |
| 2026-04-27 18:49 | 57.52741 | -35.77374 | 40093 ft | 553 kts | 79° |
| 2026-04-27 18:49 | 57.54244 | -35.63124 | 40099 ft | 553 kts | 79° |
| 2026-04-27 18:50 | 57.55719 | -35.48983 | 40086 ft | 554 kts | 79° |
| 2026-04-27 18:50 | 57.57198 | -35.34637 | 40098 ft | 554 kts | 80° |
| 2026-04-27 18:51 | 57.58654 | -35.20333 | 40091 ft | 553 kts | 81° |
| 2026-04-27 18:51 | 57.60072 | -35.06199 | 40088 ft | 553 kts | 81° |
| 2026-04-27 18:52 | 57.61486 | -34.91974 | 40092 ft | 553 kts | 80° |
| 2026-04-27 18:53 | 57.63543 | -34.70982 | 40093 ft | 554 kts | 80° |
| 2026-04-27 18:53 | 57.64909 | -34.56840 | 40091 ft | 553 kts | 80° |
| 2026-04-27 18:54 | 57.66269 | -34.42578 | 40091 ft | 553 kts | 80° |
| 2026-04-27 18:54 | 57.67604 | -34.28390 | 40084 ft | 553 kts | 81° |
| 2026-04-27 18:55 | 57.68917 | -34.14214 | 40103 ft | 553 kts | 81° |
| 2026-04-27 18:55 | 57.70213 | -34.00061 | 40093 ft | 553 kts | 81° |
| 2026-04-27 18:56 | 57.71473 | -33.86160 | 40088 ft | 553 kts | 81° |
| 2026-04-27 18:56 | 57.72758 | -33.71782 | 40086 ft | 553 kts | 81° |
| 2026-04-27 18:57 | 57.74021 | -33.57474 | 40096 ft | 553 kts | 81° |
| 2026-04-27 18:57 | 57.75262 | -33.43212 | 40097 ft | 553 kts | 81° |
| 2026-04-27 18:58 | 57.76488 | -33.28914 | 40096 ft | 553 kts | 82° |
| 2026-04-27 18:58 | 57.77691 | -33.14682 | 40095 ft | 553 kts | 82° |
| 2026-04-27 18:59 | 57.78885 | -33.00364 | 40098 ft | 553 kts | 82° |
| 2026-04-27 18:59 | 57.80057 | -32.86124 | 40088 ft | 553 kts | 82° |
| 2026-04-27 19:00 | 57.81215 | -32.71842 | 40100 ft | 553 kts | 82° |
| 2026-04-27 19:00 | 57.82354 | -32.57581 | 40094 ft | 553 kts | 82° |
| 2026-04-27 19:01 | 57.83494 | -32.43103 | 40108 ft | 553 kts | 82° |
| 2026-04-27 19:01 | 57.84613 | -32.28693 | 40086 ft | 553 kts | 83° |
| 2026-04-27 19:02 | 57.85707 | -32.14333 | 40107 ft | 553 kts | 83° |
| 2026-04-27 19:02 | 57.86782 | -32.00031 | 40097 ft | 553 kts | 83° |
| 2026-04-27 19:03 | 57.87841 | -31.85707 | 40088 ft | 553 kts | 83° |
| 2026-04-27 19:03 | 57.88891 | -31.71314 | 40108 ft | 553 kts | 83° |
| 2026-04-27 19:04 | 57.89938 | -31.56686 | 40096 ft | 553 kts | 83° |
| 2026-04-27 19:04 | 57.90958 | -31.42193 | 40094 ft | 553 kts | 83° |
| 2026-04-27 19:05 | 57.91960 | -31.27747 | 40093 ft | 553 kts | 84° |
| 2026-04-27 19:05 | 57.92906 | -31.13849 | 40088 ft | 553 kts | 84° |
| 2026-04-27 19:06 | 57.93821 | -31.00173 | 40105 ft | 553 kts | 84° |
| 2026-04-27 19:06 | 57.94758 | -30.85909 | 40097 ft | 553 kts | 84° |
| 2026-04-27 19:07 | 57.95691 | -30.71470 | 40091 ft | 553 kts | 84° |
| 2026-04-27 19:07 | 57.96607 | -30.57037 | 40099 ft | 553 kts | 84° |
| 2026-04-27 19:08 | 57.97495 | -30.42707 | 40106 ft | 553 kts | 84° |
| 2026-04-27 19:08 | 57.98376 | -30.28252 | 40097 ft | 553 kts | 85° |
| 2026-04-27 19:09 | 57.99226 | -30.13820 | 40092 ft | 553 kts | 85° |
| 2026-04-27 19:09 | 58.00052 | -29.99452 | 40086 ft | 553 kts | 86° |
| 2026-04-27 19:10 | 58.00652 | -29.85442 | 40100 ft | 552 kts | 87° |
| 2026-04-27 19:10 | 58.01196 | -29.71176 | 40094 ft | 552 kts | 87° |
| 2026-04-27 19:11 | 58.01721 | -29.56662 | 40087 ft | 553 kts | 88° |
| 2026-04-27 19:11 | 58.02219 | -29.42573 | 40099 ft | 552 kts | 87° |
| 2026-04-27 19:12 | 58.02704 | -29.28317 | 40099 ft | 551 kts | 88° |
| 2026-04-27 19:12 | 58.03176 | -29.14054 | 40093 ft | 552 kts | 88° |
| 2026-04-27 19:13 | 58.03634 | -28.99735 | 40093 ft | 552 kts | 88° |
| 2026-04-27 19:13 | 58.04071 | -28.85474 | 40103 ft | 552 kts | 88° |
| 2026-04-27 19:14 | 58.04468 | -28.72169 | 40092 ft | 552 kts | 88° |
| 2026-04-27 19:14 | 58.04819 | -28.59899 | 40092 ft | 552 kts | 88° |
| 2026-04-27 19:15 | 58.05225 | -28.45185 | 40095 ft | 552 kts | 88° |
| 2026-04-27 19:15 | 58.05609 | -28.30776 | 40091 ft | 552 kts | 89° |
| 2026-04-27 19:16 | 58.05980 | -28.16150 | 40098 ft | 551 kts | 89° |
| 2026-04-27 19:16 | 58.06334 | -28.01516 | 40088 ft | 551 kts | 89° |
| 2026-04-27 19:17 | 58.06667 | -27.87074 | 40088 ft | 551 kts | 89° |
| 2026-04-27 19:17 | 58.06987 | -27.72451 | 40108 ft | 552 kts | 89° |
| 2026-04-27 19:18 | 58.07285 | -27.58124 | 40074 ft | 551 kts | 89° |
| 2026-04-27 19:18 | 58.07567 | -27.43717 | 40108 ft | 552 kts | 89° |
| 2026-04-27 19:19 | 58.07835 | -27.29314 | 40099 ft | 552 kts | 90° |
| 2026-04-27 19:19 | 58.08077 | -27.15422 | 40103 ft | 551 kts | 90° |
| 2026-04-27 19:20 | 58.08303 | -27.01539 | 40096 ft | 550 kts | 90° |
| 2026-04-27 19:20 | 58.08521 | -26.87153 | 40094 ft | 551 kts | 90° |
| 2026-04-27 19:21 | 58.08726 | -26.72642 | 40090 ft | 551 kts | 90° |
| 2026-04-27 19:21 | 58.08913 | -26.58094 | 40092 ft | 551 kts | 90° |
| 2026-04-27 19:22 | 58.09085 | -26.43604 | 40099 ft | 551 kts | 90° |
| 2026-04-27 19:22 | 58.09238 | -26.29202 | 40092 ft | 551 kts | 91° |
| 2026-04-27 19:23 | 58.09379 | -26.14625 | 40099 ft | 551 kts | 91° |
| 2026-04-27 19:23 | 58.09499 | -26.00147 | 40099 ft | 551 kts | 91° |
| 2026-04-27 19:24 | 58.09605 | -25.85606 | 40094 ft | 551 kts | 91° |
| 2026-04-27 19:24 | 58.09694 | -25.71055 | 40102 ft | 551 kts | 91° |
| 2026-04-27 19:25 | 58.09767 | -25.56449 | 40081 ft | 551 kts | 91° |
| 2026-04-27 19:25 | 58.09822 | -25.41860 | 40094 ft | 550 kts | 91° |
| 2026-04-27 19:26 | 58.09862 | -25.27370 | 40109 ft | 551 kts | 92° |
| 2026-04-27 19:26 | 58.09888 | -25.12843 | 40088 ft | 550 kts | 92° |
| 2026-04-27 19:27 | 58.09891 | -24.98379 | 40103 ft | 550 kts | 92° |
| 2026-04-27 19:27 | 58.09882 | -24.83841 | 40098 ft | 550 kts | 92° |
| 2026-04-27 19:28 | 58.09853 | -24.69346 | 40102 ft | 551 kts | 92° |
| 2026-04-27 19:28 | 58.09810 | -24.54806 | 40096 ft | 550 kts | 92° |
| 2026-04-27 19:29 | 58.09753 | -24.40323 | 40093 ft | 551 kts | 92° |
| 2026-04-27 19:29 | 58.09677 | -24.25857 | 40102 ft | 551 kts | 93° |
| 2026-04-27 19:30 | 58.09585 | -24.11291 | 40090 ft | 550 kts | 93° |
| 2026-04-27 19:30 | 58.09474 | -23.96921 | 40098 ft | 550 kts | 93° |
| 2026-04-27 19:31 | 58.09350 | -23.82492 | 40102 ft | 550 kts | 93° |
| 2026-04-27 19:31 | 58.09208 | -23.68010 | 40088 ft | 550 kts | 93° |
| 2026-04-27 19:32 | 58.09052 | -23.53544 | 40097 ft | 550 kts | 93° |
| 2026-04-27 19:32 | 58.08876 | -23.39089 | 40100 ft | 550 kts | 93° |
| 2026-04-27 19:33 | 58.08688 | -23.24651 | 40087 ft | 550 kts | 94° |
| 2026-04-27 19:33 | 58.08481 | -23.10196 | 40093 ft | 550 kts | 94° |
| 2026-04-27 19:34 | 58.08256 | -22.95763 | 40090 ft | 550 kts | 94° |
| 2026-04-27 19:34 | 58.08017 | -22.81296 | 40084 ft | 550 kts | 94° |
| 2026-04-27 19:35 | 58.07761 | -22.66885 | 40104 ft | 550 kts | 94° |
| 2026-04-27 19:35 | 58.07491 | -22.52528 | 40106 ft | 550 kts | 94° |
| 2026-04-27 19:36 | 58.07202 | -22.38116 | 40103 ft | 550 kts | 94° |
| 2026-04-27 19:36 | 58.06898 | -22.23636 | 40093 ft | 550 kts | 95° |
| 2026-04-27 19:37 | 58.06578 | -22.09288 | 40095 ft | 550 kts | 95° |
| 2026-04-27 19:37 | 58.06241 | -21.94818 | 40105 ft | 550 kts | 95° |
| 2026-04-27 19:38 | 58.05886 | -21.80373 | 40094 ft | 550 kts | 94° |
| 2026-04-27 19:38 | 58.05516 | -21.65939 | 40099 ft | 550 kts | 95° |
| 2026-04-27 19:39 | 58.05125 | -21.51479 | 40105 ft | 550 kts | 95° |
| 2026-04-27 19:39 | 58.04724 | -21.37097 | 40088 ft | 550 kts | 95° |
| 2026-04-27 19:40 | 58.04313 | -21.22918 | 40105 ft | 549 kts | 96° |
| 2026-04-27 19:40 | 58.03873 | -21.08389 | 40090 ft | 549 kts | 96° |
| 2026-04-27 19:41 | 58.03421 | -20.93967 | 40098 ft | 549 kts | 95° |
| 2026-04-27 19:41 | 58.02947 | -20.79480 | 40094 ft | 549 kts | 96° |
| 2026-04-27 19:42 | 58.02455 | -20.64965 | 40092 ft | 549 kts | 96° |
| 2026-04-27 19:42 | 58.01940 | -20.50318 | 40104 ft | 550 kts | 96° |
| 2026-04-27 19:43 | 58.01408 | -20.35762 | 40089 ft | 550 kts | 96° |
| 2026-04-27 19:43 | 58.00867 | -20.21483 | 40091 ft | 549 kts | 97° |
| 2026-04-27 19:44 | 58.00257 | -20.08171 | 40091 ft | 548 kts | 100° |
| 2026-04-27 19:44 | 57.98934 | -19.94491 | 40099 ft | 544 kts | 107° |
| 2026-04-27 19:45 | 57.96990 | -19.82174 | 40093 ft | 541 kts | 112° |
| 2026-04-27 19:45 | 57.94821 | -19.70135 | 40090 ft | 542 kts | 112° |
| 2026-04-27 19:46 | 57.92406 | -19.56764 | 40107 ft | 542 kts | 112° |
| 2026-04-27 19:46 | 57.89987 | -19.43377 | 40085 ft | 542 kts | 112° |
| 2026-04-27 19:47 | 57.87559 | -19.29984 | 40108 ft | 541 kts | 113° |
| 2026-04-27 19:47 | 57.85128 | -19.16622 | 40098 ft | 541 kts | 113° |
| 2026-04-27 19:48 | 57.82693 | -19.03366 | 40105 ft | 541 kts | 113° |
| 2026-04-27 19:48 | 57.80237 | -18.90088 | 40103 ft | 540 kts | 113° |
| 2026-04-27 19:49 | 57.77766 | -18.76834 | 40102 ft | 540 kts | 113° |
| 2026-04-27 19:49 | 57.75291 | -18.63656 | 40111 ft | 540 kts | 113° |
| 2026-04-27 19:50 | 57.72795 | -18.50452 | 40095 ft | 540 kts | 113° |
| 2026-04-27 19:50 | 57.70285 | -18.37261 | 40088 ft | 540 kts | 113° |
| 2026-04-27 19:51 | 57.67755 | -18.24027 | 40106 ft | 540 kts | 114° |
| 2026-04-27 19:51 | 57.65229 | -18.10905 | 40083 ft | 540 kts | 114° |
| 2026-04-27 19:52 | 57.62685 | -17.97796 | 40109 ft | 539 kts | 114° |
| 2026-04-27 19:52 | 57.60115 | -17.84658 | 40097 ft | 539 kts | 114° |
| 2026-04-27 19:53 | 57.56296 | -17.65296 | 40095 ft | 539 kts | 114° |
| 2026-04-27 19:53 | 57.53803 | -17.52752 | 40106 ft | 540 kts | 114° |
| 2026-04-27 19:54 | 57.51266 | -17.40076 | 40098 ft | 539 kts | 114° |
| 2026-04-27 19:54 | 57.48741 | -17.27522 | 40088 ft | 539 kts | 115° |
| 2026-04-27 19:55 | 57.46504 | -17.16444 | 40104 ft | 539 kts | 115° |
| 2026-04-27 19:55 | 57.43948 | -17.03878 | 40093 ft | 538 kts | 115° |
| 2026-04-27 19:56 | 57.41296 | -16.90946 | 40144 ft | 539 kts | 115° |
| 2026-04-27 19:56 | 57.38612 | -16.77947 | 40271 ft | 538 kts | 115° |
| 2026-04-27 19:57 | 57.35931 | -16.65047 | 40381 ft | 537 kts | 115° |
| 2026-04-27 19:57 | 57.33271 | -16.52321 | 40505 ft | 536 kts | 115° |
| 2026-04-27 19:58 | 57.31941 | -16.45982 | 40679 ft | 533 kts | 115° |
| 2026-04-27 19:58 | 57.30592 | -16.39582 | 40838 ft | 531 kts | 115° |
| 2026-04-27 19:58 | 57.29266 | -16.33313 | 40976 ft | 529 kts | 116° |
| 2026-04-27 19:58 | 57.27916 | -16.26942 | 41047 ft | 529 kts | 115° |
| 2026-04-27 19:59 | 57.25240 | -16.14346 | 41101 ft | 529 kts | 115° |
| 2026-04-27 19:59 | 57.22559 | -16.01827 | 41101 ft | 530 kts | 115° |
| 2026-04-27 20:00 | 57.19838 | -15.89217 | 41109 ft | 531 kts | 115° |
| 2026-04-27 20:00 | 57.17107 | -15.76641 | 41104 ft | 532 kts | 115° |
| 2026-04-27 20:01 | 57.14339 | -15.63978 | 41097 ft | 533 kts | 115° |
| 2026-04-27 20:01 | 57.11558 | -15.51342 | 41094 ft | 533 kts | 115° |
| 2026-04-27 20:02 | 57.08741 | -15.38654 | 41101 ft | 534 kts | 116° |
| 2026-04-27 20:02 | 57.05927 | -15.26054 | 41107 ft | 534 kts | 116° |
| 2026-04-27 20:03 | 57.03169 | -15.13509 | 41098 ft | 535 kts | 114° |
| 2026-04-27 20:03 | 57.00963 | -15.00455 | 41105 ft | 539 kts | 107° |
| 2026-04-27 20:04 | 56.99526 | -14.86926 | 41091 ft | 542 kts | 100° |
| 2026-04-27 20:04 | 56.98803 | -14.73495 | 41100 ft | 543 kts | 97° |
| 2026-04-27 20:05 | 56.98184 | -14.60197 | 41099 ft | 543 kts | 97° |
| 2026-04-27 20:05 | 56.97502 | -14.46300 | 41094 ft | 544 kts | 97° |
| 2026-04-27 20:06 | 56.96797 | -14.32477 | 41097 ft | 543 kts | 98° |
| 2026-04-27 20:06 | 56.96070 | -14.18690 | 41101 ft | 543 kts | 98° |
| 2026-04-27 20:07 | 56.95304 | -14.05265 | 41104 ft | 542 kts | 101° |
| 2026-04-27 20:07 | 56.93961 | -13.92234 | 41100 ft | 539 kts | 107° |
| 2026-04-27 20:08 | 56.91982 | -13.79127 | 41107 ft | 538 kts | 109° |
| 2026-04-27 20:08 | 56.89950 | -13.66165 | 41100 ft | 539 kts | 109° |
| 2026-04-27 20:09 | 56.87906 | -13.53331 | 41099 ft | 538 kts | 109° |
| 2026-04-27 20:09 | 56.85866 | -13.40539 | 41101 ft | 538 kts | 109° |
| 2026-04-27 20:10 | 56.83829 | -13.27746 | 41100 ft | 538 kts | 110° |
| 2026-04-27 20:10 | 56.81790 | -13.14949 | 41106 ft | 539 kts | 110° |
| 2026-04-27 20:11 | 56.79750 | -13.02256 | 41112 ft | 537 kts | 110° |
| 2026-04-27 20:11 | 56.77640 | -12.89249 | 41102 ft | 538 kts | 109° |
| 2026-04-27 20:12 | 56.75511 | -12.76207 | 41107 ft | 538 kts | 110° |
| 2026-04-27 20:12 | 56.73416 | -12.63477 | 41108 ft | 538 kts | 110° |
| 2026-04-27 20:13 | 56.71261 | -12.50475 | 41114 ft | 538 kts | 110° |
| 2026-04-27 20:13 | 56.69090 | -12.37481 | 41112 ft | 538 kts | 110° |
| 2026-04-27 20:14 | 56.66902 | -12.24457 | 41116 ft | 538 kts | 110° |
| 2026-04-27 20:14 | 56.64707 | -12.11479 | 41111 ft | 538 kts | 110° |
| 2026-04-27 20:15 | 56.62494 | -11.98505 | 41115 ft | 538 kts | 110° |
| 2026-04-27 20:15 | 56.60477 | -11.86773 | 41117 ft | 538 kts | 110° |
| 2026-04-27 20:16 | 56.58248 | -11.73899 | 41125 ft | 538 kts | 110° |
| 2026-04-27 20:16 | 56.55991 | -11.60956 | 41115 ft | 539 kts | 110° |
| 2026-04-27 20:17 | 56.53719 | -11.48019 | 41121 ft | 538 kts | 110° |
| 2026-04-27 20:17 | 56.51431 | -11.35095 | 41114 ft | 538 kts | 110° |
| 2026-04-27 20:18 | 56.49158 | -11.22295 | 41127 ft | 538 kts | 111° |
| 2026-04-27 20:18 | 56.46847 | -11.09390 | 41122 ft | 538 kts | 111° |
| 2026-04-27 20:19 | 56.44526 | -10.96536 | 41125 ft | 538 kts | 111° |
| 2026-04-27 20:19 | 56.42183 | -10.83672 | 41125 ft | 538 kts | 111° |
| 2026-04-27 20:20 | 56.39827 | -10.70815 | 41123 ft | 538 kts | 111° |
| 2026-04-27 20:20 | 56.37477 | -10.58092 | 41129 ft | 538 kts | 111° |
| 2026-04-27 20:21 | 56.35073 | -10.45165 | 41123 ft | 538 kts | 111° |
| 2026-04-27 20:21 | 56.32670 | -10.32345 | 41125 ft | 538 kts | 112° |
| 2026-04-27 20:22 | 56.30245 | -10.19473 | 41130 ft | 537 kts | 112° |
| 2026-04-27 20:22 | 56.27838 | -10.06860 | 41130 ft | 538 kts | 112° |
| 2026-04-27 20:23 | 56.25372 | -9.93952 | 41125 ft | 538 kts | 112° |
| 2026-04-27 20:23 | 56.22941 | -9.81328 | 41133 ft | 538 kts | 112° |
| 2026-04-27 20:24 | 56.20441 | -9.68551 | 41130 ft | 538 kts | 112° |
| 2026-04-27 20:24 | 56.17929 | -9.55853 | 41131 ft | 538 kts | 112° |
| 2026-04-27 20:25 | 56.15482 | -9.43574 | 41134 ft | 538 kts | 112° |
| 2026-04-27 20:25 | 56.12940 | -9.30892 | 41126 ft | 537 kts | 113° |
| 2026-04-27 20:26 | 56.10354 | -9.18049 | 41136 ft | 538 kts | 113° |
| 2026-04-27 20:26 | 56.07782 | -9.05375 | 41141 ft | 538 kts | 113° |
| 2026-04-27 20:27 | 56.05288 | -8.93179 | 41136 ft | 538 kts | 113° |
| 2026-04-27 20:27 | 56.02961 | -8.81865 | 41130 ft | 538 kts | 113° |
| 2026-04-27 20:28 | 56.00775 | -8.71295 | 41134 ft | 538 kts | 113° |
| 2026-04-27 20:28 | 55.98227 | -8.59046 | 41141 ft | 538 kts | 113° |
| 2026-04-27 20:29 | 55.95582 | -8.46408 | 41138 ft | 539 kts | 113° |
| 2026-04-27 20:29 | 55.92952 | -8.33916 | 41136 ft | 538 kts | 114° |
| 2026-04-27 20:30 | 55.90286 | -8.21297 | 41144 ft | 538 kts | 114° |
| 2026-04-27 20:30 | 55.87604 | -8.08808 | 41141 ft | 538 kts | 114° |
| 2026-04-27 20:31 | 55.84898 | -7.96318 | 41143 ft | 538 kts | 114° |
| 2026-04-27 20:31 | 55.82207 | -7.83889 | 41143 ft | 537 kts | 114° |
| 2026-04-27 20:32 | 55.79493 | -7.71406 | 41147 ft | 538 kts | 114° |
| 2026-04-27 20:32 | 55.76782 | -7.59001 | 41149 ft | 538 kts | 114° |
| 2026-04-27 20:33 | 55.74134 | -7.46949 | 41143 ft | 538 kts | 114° |
| 2026-04-27 20:33 | 55.71395 | -7.34563 | 41148 ft | 538 kts | 115° |
| 2026-04-27 20:34 | 55.68618 | -7.22038 | 41152 ft | 538 kts | 115° |
| 2026-04-27 20:34 | 55.65846 | -7.09620 | 41152 ft | 538 kts | 115° |
| 2026-04-27 20:35 | 55.63019 | -6.97046 | 41153 ft | 538 kts | 115° |
| 2026-04-27 20:35 | 55.60187 | -6.84532 | 41156 ft | 538 kts | 115° |
| 2026-04-27 20:36 | 55.57345 | -6.72059 | 41152 ft | 537 kts | 115° |
| 2026-04-27 20:36 | 55.55062 | -6.62082 | 41157 ft | 538 kts | 115° |
| 2026-04-27 20:37 | 55.52123 | -6.49320 | 41155 ft | 538 kts | 115° |
| 2026-04-27 20:37 | 55.49240 | -6.36868 | 41158 ft | 538 kts | 115° |
| 2026-04-27 20:38 | 55.46356 | -6.24450 | 41160 ft | 537 kts | 116° |
| 2026-04-27 20:38 | 55.43460 | -6.12059 | 41162 ft | 537 kts | 116° |
| 2026-04-27 20:39 | 55.40568 | -5.99777 | 41161 ft | 538 kts | 116° |
| 2026-04-27 20:39 | 55.37655 | -5.87484 | 41163 ft | 538 kts | 116° |
| 2026-04-27 20:40 | 55.35415 | -5.78073 | 41166 ft | 538 kts | 116° |
| 2026-04-27 20:40 | 55.32584 | -5.66242 | 41171 ft | 538 kts | 116° |
| 2026-04-27 20:41 | 55.29604 | -5.53861 | 41164 ft | 538 kts | 116° |
| 2026-04-27 20:41 | 55.26571 | -5.41334 | 41176 ft | 538 kts | 116° |
| 2026-04-27 20:42 | 55.23630 | -5.29237 | 41168 ft | 537 kts | 117° |
| 2026-04-27 20:42 | 55.20550 | -5.16617 | 41167 ft | 537 kts | 116° |
| 2026-04-27 20:43 | 55.17489 | -5.04163 | 41168 ft | 537 kts | 117° |
| 2026-04-27 20:43 | 55.14463 | -4.91946 | 41171 ft | 537 kts | 117° |
| 2026-04-27 20:44 | 55.11618 | -4.80515 | 41150 ft | 537 kts | 117° |
| 2026-04-27 20:44 | 55.08541 | -4.68218 | 41162 ft | 537 kts | 117° |
| 2026-04-27 20:45 | 55.05464 | -4.55996 | 41158 ft | 538 kts | 117° |
| 2026-04-27 20:45 | 55.02354 | -4.43702 | 41157 ft | 537 kts | 117° |
| 2026-04-27 20:46 | 54.99243 | -4.31474 | 41150 ft | 538 kts | 117° |
| 2026-04-27 20:46 | 54.96083 | -4.19086 | 41159 ft | 538 kts | 117° |
| 2026-04-27 20:47 | 54.92921 | -4.06778 | 41161 ft | 538 kts | 117° |
| 2026-04-27 20:47 | 54.89742 | -3.94479 | 41172 ft | 538 kts | 118° |
| 2026-04-27 20:48 | 54.86583 | -3.82452 | 41181 ft | 538 kts | 118° |
| 2026-04-27 20:48 | 54.83383 | -3.70312 | 41190 ft | 539 kts | 117° |
| 2026-04-27 20:49 | 54.80223 | -3.58318 | 41187 ft | 539 kts | 117° |
| 2026-04-27 20:49 | 54.77043 | -3.46290 | 41191 ft | 539 kts | 117° |
| 2026-04-27 20:50 | 54.73872 | -3.34356 | 41183 ft | 539 kts | 118° |
| 2026-04-27 20:50 | 54.71229 | -3.24427 | 41167 ft | 540 kts | 118° |
| 2026-04-27 20:51 | 54.68734 | -3.15100 | 41157 ft | 540 kts | 118° |
| 2026-04-27 20:51 | 54.65864 | -3.04430 | 41166 ft | 540 kts | 118° |
| 2026-04-27 20:52 | 54.62526 | -2.92096 | 41154 ft | 541 kts | 118° |
| 2026-04-27 20:52 | 54.59201 | -2.79876 | 41153 ft | 541 kts | 118° |
| 2026-04-27 20:53 | 54.55860 | -2.67664 | 41150 ft | 541 kts | 118° |
| 2026-04-27 20:53 | 54.52493 | -2.55425 | 41156 ft | 541 kts | 118° |
| 2026-04-27 20:54 | 54.47417 | -2.37093 | 41157 ft | 541 kts | 118° |
| 2026-04-27 20:55 | 54.44094 | -2.25145 | 41160 ft | 542 kts | 119° |
| 2026-04-27 20:55 | 54.40666 | -2.12889 | 41160 ft | 543 kts | 119° |
| 2026-04-27 20:56 | 54.37254 | -2.00766 | 41160 ft | 543 kts | 119° |
| 2026-04-27 20:56 | 54.34730 | -1.91853 | 41164 ft | 543 kts | 119° |
| 2026-04-27 20:57 | 54.31533 | -1.80604 | 41169 ft | 543 kts | 119° |
| 2026-04-27 20:57 | 54.29013 | -1.71771 | 41178 ft | 543 kts | 119° |
| 2026-04-27 20:58 | 54.25645 | -1.60039 | 41180 ft | 543 kts | 119° |
| 2026-04-27 20:58 | 54.22225 | -1.48182 | 41188 ft | 544 kts | 119° |
| 2026-04-27 20:59 | 54.18765 | -1.36257 | 41186 ft | 544 kts | 119° |
| 2026-04-27 20:59 | 54.15323 | -1.24429 | 41187 ft | 545 kts | 120° |
| 2026-04-27 21:00 | 54.11870 | -1.12663 | 41190 ft | 544 kts | 120° |
| 2026-04-27 21:00 | 54.08408 | -1.00943 | 41191 ft | 546 kts | 121° |
| 2026-04-27 21:01 | 54.04456 | -0.89777 | 41189 ft | 539 kts | 130° |
| 2026-04-27 21:01 | 54.00157 | -0.81050 | 41185 ft | 532 kts | 140° |
| 2026-04-27 21:02 | 53.94600 | -0.72804 | 41184 ft | 525 kts | 149° |
| 2026-04-27 21:02 | 53.89459 | -0.66807 | 41186 ft | 524 kts | 152° |
| 2026-04-27 21:03 | 53.84441 | -0.61105 | 41192 ft | 524 kts | 152° |
| 2026-04-27 21:03 | 53.78616 | -0.52577 | 41209 ft | 536 kts | 135° |
| 2026-04-27 21:04 | 53.74724 | -0.43866 | 41137 ft | 546 kts | 122° |
| 2026-04-27 21:04 | 53.72864 | -0.37485 | 40827 ft | 550 kts | 117° |
| 2026-04-27 21:04 | 53.71243 | -0.31396 | 40536 ft | 552 kts | 117° |
| 2026-04-27 21:04 | 53.69610 | -0.25184 | 40256 ft | 554 kts | 117° |
| 2026-04-27 21:05 | 53.67980 | -0.19072 | 39982 ft | 556 kts | 118° |
| 2026-04-27 21:05 | 53.66815 | -0.14772 | 39777 ft | 558 kts | 118° |
| 2026-04-27 21:05 | 53.65579 | -0.10260 | 39550 ft | 558 kts | 118° |
| 2026-04-27 21:05 | 53.63774 | -0.03725 | 39223 ft | 548 kts | 118° |
| 2026-04-27 21:06 | 53.63189 | -0.01623 | 39120 ft | 545 kts | 118° |
| 2026-04-27 21:06 | 53.62353 | 0.01371 | 38969 ft | 541 kts | 118° |
| 2026-04-27 21:06 | 53.60624 | 0.07543 | 38657 ft | 533 kts | 118° |
| 2026-04-27 21:06 | 53.59632 | 0.11073 | 38477 ft | 529 kts | 119° |
| 2026-04-27 21:07 | 53.58045 | 0.16706 | 38189 ft | 524 kts | 118° |
| 2026-04-27 21:07 | 53.56448 | 0.22346 | 37889 ft | 524 kts | 118° |
| 2026-04-27 21:07 | 53.54869 | 0.27925 | 37592 ft | 523 kts | 118° |
| 2026-04-27 21:07 | 53.53387 | 0.33148 | 37318 ft | 522 kts | 118° |
| 2026-04-27 21:08 | 53.52093 | 0.37690 | 37077 ft | 522 kts | 118° |
| 2026-04-27 21:08 | 53.50525 | 0.43194 | 36784 ft | 522 kts | 118° |
| 2026-04-27 21:08 | 53.48926 | 0.48799 | 36488 ft | 520 kts | 118° |
| 2026-04-27 21:08 | 53.47412 | 0.54091 | 36207 ft | 519 kts | 118° |
| 2026-04-27 21:09 | 53.45809 | 0.59681 | 35910 ft | 518 kts | 118° |
| 2026-04-27 21:09 | 53.44224 | 0.65197 | 35616 ft | 518 kts | 118° |
| 2026-04-27 21:09 | 53.42628 | 0.70749 | 35320 ft | 518 kts | 118° |
| 2026-04-27 21:09 | 53.41060 | 0.76205 | 35032 ft | 517 kts | 118° |
| 2026-04-27 21:10 | 53.39492 | 0.81632 | 34738 ft | 516 kts | 118° |
| 2026-04-27 21:10 | 53.37922 | 0.87055 | 34444 ft | 515 kts | 118° |
| 2026-04-27 21:10 | 53.36346 | 0.92477 | 34162 ft | 515 kts | 118° |
| 2026-04-27 21:10 | 53.34780 | 0.97859 | 33885 ft | 515 kts | 118° |
| 2026-04-27 21:11 | 53.33182 | 1.03337 | 33591 ft | 515 kts | 118° |
| 2026-04-27 21:11 | 53.31611 | 1.08704 | 33313 ft | 515 kts | 117° |
| 2026-04-27 21:11 | 53.30012 | 1.14156 | 33040 ft | 515 kts | 118° |
| 2026-04-27 21:11 | 53.28413 | 1.19599 | 32760 ft | 516 kts | 118° |
| 2026-04-27 21:12 | 53.26828 | 1.24977 | 32487 ft | 517 kts | 118° |
| 2026-04-27 21:12 | 53.25199 | 1.30489 | 32208 ft | 517 kts | 118° |
| 2026-04-27 21:12 | 53.23618 | 1.35826 | 31942 ft | 516 kts | 118° |
| 2026-04-27 21:12 | 53.22339 | 1.40138 | 31726 ft | 517 kts | 118° |
| 2026-04-27 21:13 | 53.20773 | 1.45401 | 31456 ft | 518 kts | 118° |
| 2026-04-27 21:13 | 53.19539 | 1.49541 | 31254 ft | 518 kts | 118° |
| 2026-04-27 21:13 | 53.17917 | 1.54978 | 30978 ft | 519 kts | 118° |
| 2026-04-27 21:13 | 53.16300 | 1.60386 | 30701 ft | 520 kts | 118° |
| 2026-04-27 21:14 | 53.14653 | 1.65878 | 30427 ft | 520 kts | 119° |
| 2026-04-27 21:14 | 53.13003 | 1.71375 | 30156 ft | 520 kts | 118° |
| 2026-04-27 21:14 | 53.11351 | 1.76873 | 29884 ft | 520 kts | 118° |
| 2026-04-27 21:14 | 53.09827 | 1.81936 | 29631 ft | 521 kts | 118° |
| 2026-04-27 21:15 | 53.08272 | 1.87085 | 29371 ft | 521 kts | 119° |
| 2026-04-27 21:15 | 53.06599 | 1.92600 | 29102 ft | 522 kts | 119° |
| 2026-04-27 21:15 | 53.04952 | 1.98021 | 28835 ft | 522 kts | 119° |
| 2026-04-27 21:15 | 53.03274 | 2.03527 | 28560 ft | 523 kts | 119° |
| 2026-04-27 21:16 | 53.01638 | 2.08881 | 28099 ft | 523 kts | 118° |
| 2026-04-27 21:16 | 53.00015 | 2.14184 | 27430 ft | 522 kts | 119° |
| 2026-04-27 21:16 | 52.98372 | 2.19544 | 26843 ft | 515 kts | 118° |
| 2026-04-27 21:16 | 52.96793 | 2.24677 | 26399 ft | 510 kts | 118° |
| 2026-04-27 21:17 | 52.95165 | 2.29959 | 25854 ft | 506 kts | 119° |
| 2026-04-27 21:17 | 52.93515 | 2.35298 | 25272 ft | 501 kts | 118° |
| 2026-04-27 21:17 | 52.91898 | 2.40516 | 24742 ft | 495 kts | 118° |
| 2026-04-27 21:17 | 52.90307 | 2.45639 | 24235 ft | 490 kts | 119° |
| 2026-04-27 21:18 | 52.88717 | 2.50728 | 23737 ft | 485 kts | 119° |
| 2026-04-27 21:18 | 52.87325 | 2.55139 | 23303 ft | 481 kts | 119° |
| 2026-04-27 21:18 | 52.86301 | 2.58300 | 22946 ft | 478 kts | 120° |
| 2026-04-27 21:18 | 52.84742 | 2.63000 | 22032 ft | 471 kts | 121° |
| 2026-04-27 21:19 | 52.83116 | 2.67819 | 20957 ft | 468 kts | 122° |
| 2026-04-27 21:19 | 52.81552 | 2.72439 | 20076 ft | 461 kts | 122° |
| 2026-04-27 21:19 | 52.79994 | 2.77025 | 19241 ft | 453 kts | 122° |
| 2026-04-27 21:20 | 52.76978 | 2.85856 | 17915 ft | 430 kts | 122° |
| 2026-04-27 21:20 | 52.75518 | 2.90111 | 17140 ft | 424 kts | 122° |
| 2026-04-27 21:20 | 52.74085 | 2.94273 | 16341 ft | 423 kts | 122° |
| 2026-04-27 21:20 | 52.72807 | 2.97977 | 15913 ft | 422 kts | 122° |
| 2026-04-27 21:21 | 52.71671 | 3.01271 | 15633 ft | 418 kts | 122° |
| 2026-04-27 21:21 | 52.70146 | 3.05689 | 15173 ft | 413 kts | 122° |
| 2026-04-27 21:21 | 52.68929 | 3.09215 | 14759 ft | 410 kts | 122° |
| 2026-04-27 21:21 | 52.67462 | 3.13455 | 14217 ft | 407 kts | 122° |
| 2026-04-27 21:22 | 52.65969 | 3.17755 | 13613 ft | 404 kts | 121° |
| 2026-04-27 21:22 | 52.64560 | 3.21812 | 13115 ft | 400 kts | 121° |
| 2026-04-27 21:22 | 52.63184 | 3.25772 | 12584 ft | 398 kts | 121° |
| 2026-04-27 21:22 | 52.61800 | 3.29744 | 12026 ft | 395 kts | 121° |
| 2026-04-27 21:23 | 52.60547 | 3.33336 | 11564 ft | 391 kts | 121° |
| 2026-04-27 21:23 | 52.59269 | 3.36988 | 11080 ft | 398 kts | 121° |
| 2026-04-27 21:23 | 52.57793 | 3.41208 | 10848 ft | 398 kts | 121° |
| 2026-04-27 21:23 | 52.56422 | 3.45130 | 10671 ft | 398 kts | 121° |
| 2026-04-27 21:24 | 52.55020 | 3.49126 | 10512 ft | 396 kts | 121° |
| 2026-04-27 21:24 | 52.53643 | 3.53047 | 10352 ft | 396 kts | 120° |
| 2026-04-27 21:24 | 52.52235 | 3.57049 | 10214 ft | 396 kts | 120° |
| 2026-04-27 21:24 | 52.50865 | 3.60937 | 10139 ft | 394 kts | 120° |
| 2026-04-27 21:25 | 52.49852 | 3.63806 | 10078 ft | 394 kts | 120° |
| 2026-04-27 21:25 | 52.48450 | 3.67783 | 10001 ft | 394 kts | 121° |
| 2026-04-27 21:25 | 52.47209 | 3.71303 | 9846 ft | 388 kts | 121° |
| 2026-04-27 21:25 | 52.46169 | 3.74244 | 9364 ft | 382 kts | 121° |
| 2026-04-27 21:26 | 52.44826 | 3.78035 | 8622 ft | 364 kts | 121° |
| 2026-04-27 21:26 | 52.43687 | 3.81237 | 8402 ft | 341 kts | 121° |
| 2026-04-27 21:26 | 52.42481 | 3.84625 | 8154 ft | 332 kts | 121° |
| 2026-04-27 21:26 | 52.41337 | 3.87821 | 7946 ft | 327 kts | 121° |
| 2026-04-27 21:27 | 52.40669 | 3.89688 | 7794 ft | 324 kts | 121° |
| 2026-04-27 21:27 | 52.39402 | 3.93228 | 7523 ft | 317 kts | 121° |
| 2026-04-27 21:27 | 52.38254 | 3.96432 | 7203 ft | 312 kts | 121° |
| 2026-04-27 21:27 | 52.37178 | 3.99436 | 6956 ft | 306 kts | 121° |
| 2026-04-27 21:28 | 52.36190 | 4.02189 | 6678 ft | 303 kts | 121° |
| 2026-04-27 21:28 | 52.35216 | 4.04896 | 6409 ft | 299 kts | 121° |
| 2026-04-27 21:28 | 52.34197 | 4.07731 | 6130 ft | 295 kts | 121° |
| 2026-04-27 21:28 | 52.33116 | 4.10734 | 5833 ft | 291 kts | 122° |
| 2026-04-27 21:29 | 52.32065 | 4.13652 | 5546 ft | 287 kts | 122° |
| 2026-04-27 21:29 | 52.31104 | 4.16314 | 5287 ft | 284 kts | 122° |
| 2026-04-27 21:29 | 52.30346 | 4.18407 | 5087 ft | 281 kts | 122° |
| 2026-04-27 21:29 | 52.29342 | 4.21182 | 4816 ft | 278 kts | 122° |
| 2026-04-27 21:30 | 52.28652 | 4.23083 | 4602 ft | 276 kts | 122° |
| 2026-04-27 21:30 | 52.27866 | 4.25246 | 4334 ft | 276 kts | 123° |
| 2026-04-27 21:30 | 52.26885 | 4.27951 | 4055 ft | 273 kts | 123° |
| 2026-04-27 21:30 | 52.26433 | 4.29197 | 4004 ft | 268 kts | 123° |
| 2026-04-27 21:31 | 52.25805 | 4.30931 | 3994 ft | 260 kts | 123° |
| 2026-04-27 21:31 | 52.24889 | 4.33453 | 3990 ft | 247 kts | 123° |
| 2026-04-27 21:31 | 52.23991 | 4.35933 | 3986 ft | 235 kts | 121° |
| 2026-04-27 21:32 | 52.23498 | 4.37474 | 3862 ft | 234 kts | 118° |
| 2026-04-27 21:32 | 52.23245 | 4.38333 | 3809 ft | 232 kts | 118° |
| 2026-04-27 21:32 | 52.22616 | 4.40502 | 3644 ft | 228 kts | 118° |
| 2026-04-27 21:32 | 52.21926 | 4.42908 | 3466 ft | 224 kts | 118° |
| 2026-04-27 21:33 | 52.21274 | 4.45181 | 3282 ft | 222 kts | 116° |
| 2026-04-27 21:33 | 52.20911 | 4.47240 | 3107 ft | 224 kts | 98° |
| 2026-04-27 21:33 | 52.20870 | 4.47999 | 3072 ft | 224 kts | 96° |
| 2026-04-27 21:33 | 52.20825 | 4.49787 | 2969 ft | 215 kts | 93° |
| 2026-04-27 21:34 | 52.20941 | 4.52238 | 2756 ft | 207 kts | 76° |
| 2026-04-27 21:34 | 52.21497 | 4.54462 | 2471 ft | 205 kts | 62° |
| 2026-04-27 21:34 | 52.22277 | 4.56516 | 2236 ft | 205 kts | 57° |
| 2026-04-27 21:34 | 52.23067 | 4.58432 | 2174 ft | 205 kts | 56° |
| 2026-04-27 21:35 | 52.23827 | 4.60353 | 1947 ft | 204 kts | 58° |
| 2026-04-27 21:35 | 52.24176 | 4.61266 | 1817 ft | 202 kts | 58° |
| 2026-04-27 21:35 | 52.25270 | 4.64172 | 1397 ft | 188 kts | 59° |
| 2026-04-27 21:36 | 52.25941 | 4.65946 | 1140 ft | 176 kts | 60° |
| 2026-04-27 21:36 | 52.26499 | 4.67418 | 933 ft | 166 kts | 59° |
| 2026-04-27 21:36 | 52.26895 | 4.68457 | 782 ft | 158 kts | 60° |
| 2026-04-27 21:36 | 52.27451 | 4.69909 | 573 ft | 148 kts | 60° |
| 2026-04-27 21:37 | 52.27837 | 4.70918 | 444 ft | 147 kts | 60° |
| 2026-04-27 21:37 | 52.28371 | 4.72310 | 249 ft | 145 kts | 60° |
| 2026-04-27 21:37 | 52.28656 | 4.73054 | 141 ft | 145 kts | 61° |
| 2026-04-27 21:37 | 52.28900 | 4.73708 | 55 ft | 143 kts | 61° |
| 2026-04-27 21:38 | 52.29235 | 4.74611 | 5 ft | 123 kts | 61° |
| 2026-04-27 21:38 | 52.29555 | 4.75375 | 1 ft | 79 kts | 57° |
| 2026-04-27 21:38 | 52.29928 | 4.75924 | 3 ft | 18 kts | 30° |
| 2026-04-27 21:39 | 52.30023 | 4.76081 | 5 ft | 19 kts | 56° |
| 2026-04-27 21:39 | 52.30105 | 4.76283 | 3 ft | 22 kts | 57° |
| 2026-04-27 21:39 | 52.30193 | 4.76512 | 4 ft | 24 kts | 59° |
| 2026-04-27 21:39 | 52.30264 | 4.76706 | 3 ft | 14 kts | 58° |
| 2026-04-27 21:40 | 52.30322 | 4.76853 | 4 ft | 15 kts | 57° |
| 2026-04-27 21:40 | 52.30384 | 4.77010 | 6 ft | 17 kts | 58° |
| 2026-04-27 21:40 | 52.30432 | 4.77132 | 9 ft | 5 kts | 53° |
| 2026-04-27 21:40 | 52.30456 | 4.77156 | 10 ft | 3 kts | 359° |
| 2026-04-27 21:41 | 52.30479 | 4.77127 | 10 ft | 5 kts | 297° |
| 2026-04-27 21:41 | 52.30497 | 4.77055 | 9 ft | 8 kts | 290° |
| 2026-04-27 21:41 | 52.30521 | 4.76961 | 9 ft | 4 kts | 296° |
| 2026-04-27 21:41 | 52.30523 | 4.76935 | 9 ft | 2 kts | 271° |
| 2026-04-27 21:42 | 52.30522 | 4.76892 | 9 ft | 4 kts | 278° |
| 2026-04-27 21:42 | 52.30532 | 4.76846 | 9 ft | 4 kts | 293° |
| 2026-04-27 21:42 | 52.30537 | 4.76824 | 9 ft | 0 kts | 294° |